M I D A S
Marine Information and Data Acquisition System
Tripno 2228 of the Zeeleeuw from 2011-10-10 06:46:27 to 2011-10-10 09:52:16
Back to CruiseResearch ActivitiesStationsMapUnderway DataData graphs

EquipmentUnitsComment
TimeDGPSUTC
LatitudeDGPSDM.mWGS84
LongitudeDGPSDM.mWGS84
HeadingGyrodeg 
SOGDGPSknotsSpeed over ground
COGDGPSdegCourse over ground
DepthEcho soundermeters200 kHz
Missing or incorrect values are displayed as -999
Navigation data collected by the RV Zeeleeuw from 2011-10-10 06:42:49 to 2011-10-10 10:20:33
                                                                                    Next 1000 lines
Time Latitude Longitude Heading SOG COG Depth
2011-10-10 06:43:00 51°13.637 2°56.013 106.2 1 288 7.3
2011-10-10 06:43:04 51°13.637 2°56.011 106.2 1.6 293 7.3
2011-10-10 06:43:10 51°13.639 2°56.005 106.2 2.2 290 7.4
2011-10-10 06:43:14 51°13.64 2°56.001 106.2 2.6 295 -999
2011-10-10 06:43:21 51°13.642 2°55.992 106.3 3.1 291 -999
2011-10-10 06:43:26 51°13.644 2°55.985 106.5 3.4 293 -999
2011-10-10 06:43:32 51°13.646 2°55.976 106.2 3.6 290 -999
2011-10-10 06:43:38 51°13.648 2°55.967 106.1 3.7 291 -999
2011-10-10 06:43:43 51°13.65 2°55.959 105.3 3.7 290 -999
2011-10-10 06:43:48 51°13.652 2°55.952 104.9 3.6 289 -999
2011-10-10 06:43:53 51°13.653 2°55.944 104.3 3.6 289 -999
2011-10-10 06:43:58 51°13.655 2°55.937 103.8 3.4 288 -999
2011-10-10 06:44:03 51°13.656 2°55.93 103.2 3.2 289 -999
2011-10-10 06:44:08 51°13.657 2°55.924 102.3 2.8 286 -999
2011-10-10 06:44:13 51°13.658 2°55.92 101.2 2.1 292 -999
2011-10-10 06:44:18 51°13.659 2°55.917 101 1.5 293 -999
2011-10-10 06:44:23 51°13.659 2°55.914 102.6 1.4 292 -999
2011-10-10 06:44:27 51°13.66 2°55.912 103.8 1.5 292 11.4
2011-10-10 06:44:33 51°13.661 2°55.908 104.1 1.6 292 11.1
2011-10-10 06:44:37 51°13.662 2°55.905 104.1 1.8 291 10.6
2011-10-10 06:44:42 51°13.663 2°55.901 103.6 1.8 288 11
2011-10-10 06:44:47 51°13.664 2°55.897 103.3 2 288 11.4
2011-10-10 06:44:52 51°13.664 2°55.892 103.1 2.1 285 10.8
2011-10-10 06:44:57 51°13.665 2°55.888 103 2.2 289 4.9
2011-10-10 06:45:02 51°13.666 2°55.882 102.8 2.4 284 -999
2011-10-10 06:45:08 51°13.667 2°55.876 103.2 2.5 289 -999
2011-10-10 06:45:13 51°13.668 2°55.871 103.6 2.6 284 -999
2011-10-10 06:45:18 51°13.669 2°55.865 103.9 2.7 289 -999
2011-10-10 06:45:23 51°13.671 2°55.859 103.9 2.9 285 -999
2011-10-10 06:45:28 51°13.672 2°55.852 103.9 3.2 287 -999
2011-10-10 06:45:33 51°13.673 2°55.845 103.6 3.3 285 -999
2011-10-10 06:45:38 51°13.674 2°55.837 102.7 3.5 285 -999
2011-10-10 06:45:43 51°13.676 2°55.829 101.7 3.8 285 -999
2011-10-10 06:45:48 51°13.677 2°55.821 100.5 3.9 284 -999
2011-10-10 06:45:53 51°13.678 2°55.812 99.5 3.9 283 -999
2011-10-10 06:45:58 51°13.679 2°55.804 98.2 3.9 282 -999
2011-10-10 06:46:02 51°13.68 2°55.797 96.7 3.9 281 -999
2011-10-10 06:46:08 51°13.681 2°55.787 95.1 3.7 280 -999
2011-10-10 06:46:13 51°13.682 2°55.78 93.3 3.5 279 -999
2011-10-10 06:46:18 51°13.683 2°55.773 91.5 3.3 278 -999
2011-10-10 06:46:23 51°13.683 2°55.766 89.8 3.2 278 -999
2011-10-10 06:46:28 51°13.684 2°55.759 88.2 3 275 -999
2011-10-10 06:46:33 51°13.684 2°55.753 86.6 2.9 275 -999
2011-10-10 06:46:38 51°13.684 2°55.747 85.2 2.5 277 -999
2011-10-10 06:46:42 51°13.685 2°55.745 84 1.4 287 10.7
2011-10-10 06:46:47 51°13.685 2°55.744 81.7 0.6 306 10.8
2011-10-10 06:46:52 51°13.686 2°55.744 77 0.8 19 11.4
2011-10-10 06:46:57 51°13.687 2°55.746 71 1.1 41 11.7
2011-10-10 06:47:02 51°13.689 2°55.748 63.4 1.4 38 12.3
2011-10-10 06:47:06 51°13.69 2°55.75 54.3 1.7 38 12.3
2011-10-10 06:47:12 51°13.692 2°55.752 48.6 1.8 35 12.3
2011-10-10 06:47:17 51°13.694 2°55.754 40.3 1.4 23 12.2
2011-10-10 06:47:22 51°13.695 2°55.754 35.1 0.7 22 12.5
2011-10-10 06:47:26 51°13.695 2°55.755 32.1 0.1 36 12.5
2011-10-10 06:47:31 51°13.695 2°55.754 27.9 0.6 212 12.5
2011-10-10 06:47:36 51°13.693 2°55.753 23.1 1.3 195 12.3
2011-10-10 06:47:41 51°13.69 2°55.752 20.7 1.8 199 12.2
2011-10-10 06:47:46 51°13.688 2°55.751 18.4 1.7 196 12.1
2011-10-10 06:47:51 51°13.686 2°55.75 17.1 1.3 198 -999
2011-10-10 06:47:57 51°13.686 2°55.75 16.8 0.2 148 -999
2011-10-10 06:48:03 51°13.687 2°55.75 14.8 1 357 -999
2011-10-10 06:48:08 51°13.69 2°55.751 8.8 1.8 8 -999
2011-10-10 06:48:13 51°13.693 2°55.749 359.6 2.4 350 -999
2011-10-10 06:48:18 51°13.697 2°55.748 350.8 3.2 347 -999
2011-10-10 06:48:22 51°13.701 2°55.745 341.7 3.8 336 -999
2011-10-10 06:48:28 51°13.708 2°55.74 337 4.4 335 12.4
2011-10-10 06:48:33 51°13.713 2°55.734 332.2 5 329 12
2011-10-10 06:48:38 51°13.72 2°55.728 329 5.5 330 -999
2011-10-10 06:48:42 51°13.726 2°55.723 327.2 5.8 329 11.8
2011-10-10 06:48:47 51°13.733 2°55.716 327.4 6.3 331 11.8
2011-10-10 06:48:53 51°13.743 2°55.707 327.7 6.7 327 11.7
2011-10-10 06:48:58 51°13.751 2°55.699 327.6 7.1 331 11.2
2011-10-10 06:49:02 51°13.758 2°55.692 328.2 7.3 330 11.4
2011-10-10 06:49:08 51°13.769 2°55.681 329.2 7.6 330 11.2
2011-10-10 06:49:12 51°13.776 2°55.674 329.8 7.9 330 11.4
2011-10-10 06:49:18 51°13.788 2°55.665 330.7 8 332 11.4
2011-10-10 06:49:22 51°13.796 2°55.658 331.5 8.2 332 11.5
2011-10-10 06:49:26 51°13.804 2°55.651 331.8 8.3 332 11.5
2011-10-10 06:49:32 51°13.817 2°55.641 331.9 8.4 333 11.4
2011-10-10 06:49:36 51°13.825 2°55.635 333.3 8.5 335 11.5
2011-10-10 06:49:42 51°13.839 2°55.626 335.3 8.6 336 -999
2011-10-10 06:49:46 51°13.848 2°55.62 335.6 8.7 336 11.4
2011-10-10 06:49:52 51°13.861 2°55.61 335 8.8 335 11.4
2011-10-10 06:49:56 51°13.87 2°55.604 335.4 8.8 337 11.3
2011-10-10 06:50:02 51°13.883 2°55.595 336.5 8.9 337 -999
2011-10-10 06:50:06 51°13.892 2°55.589 336.1 8.9 337 11.7
2011-10-10 06:50:10 51°13.901 2°55.582 335.5 8.9 337 11.5
2011-10-10 06:50:16 51°13.915 2°55.573 336.1 9 338 11.6
2011-10-10 06:50:20 51°13.924 2°55.568 336.9 9.1 338 11.6
2011-10-10 06:50:26 51°13.939 2°55.557 336.2 9.2 335 11.4
2011-10-10 06:50:30 51°13.948 2°55.551 334.7 9.2 336 11.5
2011-10-10 06:50:34 51°13.957 2°55.544 335.4 9.3 336 11.6
2011-10-10 06:50:40 51°13.972 2°55.535 336 9.4 337 11.4
2011-10-10 06:50:46 51°13.986 2°55.525 336.1 9.4 336 11.3
2011-10-10 06:50:50 51°13.996 2°55.519 336.6 9.5 337 11.3
2011-10-10 06:50:54 51°14.006 2°55.512 337 9.5 337 11.2
2011-10-10 06:50:58 51°14.016 2°55.506 336.4 9.5 336 11.1
2011-10-10 06:51:04 51°14.031 2°55.496 336.6 9.5 338 11.1
2011-10-10 06:51:10 51°14.046 2°55.486 336.9 9.6 337 11.2
2011-10-10 06:51:14 51°14.055 2°55.479 336.6 9.6 337 11.2
2011-10-10 06:51:19 51°14.068 2°55.471 336.5 9.7 338 11.1
2011-10-10 06:51:24 51°14.08 2°55.462 336.1 9.7 336 11
2011-10-10 06:51:30 51°14.095 2°55.452 336.2 9.7 337 11
2011-10-10 06:51:34 51°14.104 2°55.445 335.4 9.7 335 10.9
2011-10-10 06:51:39 51°14.117 2°55.436 334.5 9.7 334 -999
2011-10-10 06:51:44 51°14.129 2°55.426 334.3 9.7 335 10.9
2011-10-10 06:51:50 51°14.143 2°55.415 334.1 9.7 334 11
2011-10-10 06:51:54 51°14.153 2°55.407 333.2 9.7 333 10.8
2011-10-10 06:51:59 51°14.165 2°55.398 332 9.7 332 10.9
2011-10-10 06:52:05 51°14.179 2°55.385 331.1 9.7 332 11
2011-10-10 06:52:10 51°14.191 2°55.375 331.5 9.7 333 -999
2011-10-10 06:52:15 51°14.203 2°55.365 331.1 9.8 332 11
2011-10-10 06:52:20 51°14.215 2°55.355 330.3 9.8 331 -999
2011-10-10 06:52:25 51°14.227 2°55.344 330.5 9.8 332 10.8
2011-10-10 06:52:30 51°14.239 2°55.334 330.8 9.8 331 10.8
2011-10-10 06:52:35 51°14.25 2°55.324 330.5 9.8 332 -999
2011-10-10 06:52:42 51°14.267 2°55.31 331 9.8 332 -999
2011-10-10 06:52:46 51°14.277 2°55.302 331.5 9.8 332 10.9
2011-10-10 06:52:51 51°14.289 2°55.291 331.1 9.9 332 10.9
2011-10-10 06:52:56 51°14.301 2°55.28 330.3 10 330 -999
2011-10-10 06:53:01 51°14.313 2°55.269 329.6 10 330 11
2011-10-10 06:53:06 51°14.325 2°55.258 329.5 10.1 330 -999
2011-10-10 06:53:12 51°14.34 2°55.244 328.2 10 329 -999
2011-10-10 06:53:17 51°14.352 2°55.233 328.1 10.1 331 -999
2011-10-10 06:53:23 51°14.366 2°55.22 329.4 10.1 330 -999
2011-10-10 06:53:28 51°14.379 2°55.209 329.2 10.2 329 11
2011-10-10 06:53:34 51°14.393 2°55.194 326.7 10.2 328 -999
2011-10-10 06:53:38 51°14.403 2°55.186 327 10.3 332 10.9
2011-10-10 06:53:42 51°14.413 2°55.177 329 10.3 331 11.5
2011-10-10 06:53:47 51°14.425 2°55.166 329.6 10.4 330 -999
2011-10-10 06:53:52 51°14.438 2°55.152 327.9 10.5 326 10.9
2011-10-10 06:53:58 51°14.453 2°55.138 324.8 10.6 328 10.2
2011-10-10 06:54:02 51°14.463 2°55.127 325.2 10.8 327 10.9
2011-10-10 06:54:07 51°14.475 2°55.114 324.8 11 327 11.1
2011-10-10 06:54:12 51°14.489 2°55.101 324.4 11.1 328 12
2011-10-10 06:54:17 51°14.502 2°55.088 324.7 11.4 329 11.1
2011-10-10 06:54:22 51°14.516 2°55.076 325.6 11.4 331 11.9
2011-10-10 06:54:26 51°14.527 2°55.065 326.5 11.5 327 11.6
2011-10-10 06:54:31 51°14.541 2°55.052 325.9 11.6 329 11.9
2011-10-10 06:54:36 51°14.554 2°55.037 325.5 11.6 325 11.5
2011-10-10 06:54:41 51°14.567 2°55.022 323.8 11.8 325 11.3
2011-10-10 06:54:46 51°14.58 2°55.007 322.2 11.7 324 11.2
2011-10-10 06:54:50 51°14.59 2°54.995 322.2 11.6 324 11.2
2011-10-10 06:54:55 51°14.603 2°54.981 322 11.4 325 12.3
2011-10-10 06:55:02 51°14.622 2°54.961 321.5 11.2 326 -999
2011-10-10 06:55:06 51°14.633 2°54.951 324.5 11.2 328 11.2
2011-10-10 06:55:11 51°14.645 2°54.938 324.8 10.8 327 -999
2011-10-10 06:55:16 51°14.658 2°54.924 323.7 11.1 328 11
2011-10-10 06:55:21 51°14.671 2°54.911 323.7 10.7 327 10.7
2011-10-10 06:55:27 51°14.685 2°54.896 321.5 10.3 324 -999
2011-10-10 06:55:33 51°14.699 2°54.88 322.2 10.5 326 11
2011-10-10 06:55:38 51°14.712 2°54.867 321.6 10.7 325 12.1
2011-10-10 06:55:42 51°14.721 2°54.856 321 10.6 324 11.1
2011-10-10 06:55:47 51°14.733 2°54.842 321.3 10.7 325 11.5
2011-10-10 06:55:52 51°14.745 2°54.827 320.5 10.8 317 11
2011-10-10 06:55:57 51°14.755 2°54.809 318.2 10.6 313 11.1
2011-10-10 06:56:02 51°14.764 2°54.791 313.2 10.6 307 12.1
2011-10-10 06:56:06 51°14.771 2°54.775 307.2 10.2 303 12
2011-10-10 06:56:12 51°14.779 2°54.752 302 10.2 298 12.6
2011-10-10 06:56:18 51°14.785 2°54.727 296.9 10.1 291 11.9
2011-10-10 06:56:22 51°14.788 2°54.71 290.4 10 287 11.9
2011-10-10 06:56:27 51°14.791 2°54.688 286.1 10.1 281 11.5
2011-10-10 06:56:32 51°14.792 2°54.666 280.4 10.1 274 11.8
2011-10-10 06:56:38 51°14.791 2°54.639 271.9 10.1 268 -999
2011-10-10 06:56:42 51°14.789 2°54.621 267.1 9.9 262 11.6
2011-10-10 06:56:47 51°14.786 2°54.6 261.8 10 253 11.9
2011-10-10 06:56:52 51°14.781 2°54.579 257 10 249 10.9
2011-10-10 06:56:57 51°14.774 2°54.559 250.1 10.1 243 10.6
2011-10-10 06:57:02 51°14.766 2°54.541 243.9 10 236 11.7
2011-10-10 06:57:07 51°14.757 2°54.524 237.4 10.2 230 11.7
2011-10-10 06:57:12 51°14.746 2°54.509 230.9 10.1 224 11.2
2011-10-10 06:57:16 51°14.738 2°54.495 226.1 10.5 225 10.5
2011-10-10 06:57:21 51°14.726 2°54.482 221.8 10.4 218 10.6
2011-10-10 06:57:26 51°14.715 2°54.466 219.5 10.6 220 10.5
2011-10-10 06:57:31 51°14.705 2°54.45 220 10.6 226 10.2
2011-10-10 06:57:36 51°14.695 2°54.433 223.9 10.7 226 10.5
2011-10-10 06:57:41 51°14.684 2°54.415 225.1 10.9 226 10.6
2011-10-10 06:57:46 51°14.674 2°54.399 225.8 10.7 223 9.4
2011-10-10 06:57:50 51°14.665 2°54.386 223.8 10.9 223 9.3
2011-10-10 06:57:55 51°14.653 2°54.37 221.1 11 222 9.9
2011-10-10 06:58:00 51°14.642 2°54.354 220.1 11 221 10
2011-10-10 06:58:05 51°14.631 2°54.337 221.2 11 222 10.7
2011-10-10 06:58:10 51°14.619 2°54.321 222.2 11.2 221 10.8
2011-10-10 06:58:14 51°14.61 2°54.308 222 11 220 10.5
2011-10-10 06:58:19 51°14.599 2°54.292 221.5 10.9 223 9.4
2011-10-10 06:58:24 51°14.587 2°54.276 221.2 10.9 222 9.2
2011-10-10 06:58:29 51°14.576 2°54.26 220.6 10.9 222 8.9
2011-10-10 06:58:34 51°14.565 2°54.243 220.4 10.9 223 9.1
2011-10-10 06:58:39 51°14.553 2°54.228 221.2 10.9 219 9.4
2011-10-10 06:58:44 51°14.543 2°54.211 221.5 10.9 224 10
2011-10-10 06:58:49 51°14.531 2°54.195 222.1 10.7 222 9.2
2011-10-10 06:58:54 51°14.521 2°54.179 221.9 10.8 225 9.6
2011-10-10 06:58:59 51°14.511 2°54.162 223.3 10.7 225 10.2
2011-10-10 06:59:04 51°14.5 2°54.144 224.6 11 227 10.1
2011-10-10 06:59:10 51°14.488 2°54.123 226.7 10.9 225 10.2
2011-10-10 06:59:14 51°14.48 2°54.108 228 11 229 10.3
2011-10-10 06:59:19 51°14.47 2°54.09 228 11.1 228 10.4
2011-10-10 06:59:26 51°14.455 2°54.066 227.7 11 226 9.7
2011-10-10 06:59:30 51°14.446 2°54.051 225.8 11.1 226 9.8
2011-10-10 06:59:34 51°14.438 2°54.037 226.3 11.1 226 9.8
2011-10-10 06:59:38 51°14.429 2°54.022 226.5 11.3 229 9.6
2011-10-10 06:59:44 51°14.417 2°54 227.3 11.3 228 9.7
2011-10-10 06:59:50 51°14.405 2°53.977 228.1 11.3 230 9.6
2011-10-10 06:59:54 51°14.396 2°53.962 228.6 11.4 228 9.9
2011-10-10 06:59:59 51°14.386 2°53.943 228.5 11.4 230 9.6
2011-10-10 07:00:04 51°14.376 2°53.924 229.4 11.4 229 9.1
2011-10-10 07:00:10 51°14.363 2°53.901 229.1 11.5 229 9.6
2011-10-10 07:00:14 51°14.355 2°53.885 229.3 11.4 230 9.1
2011-10-10 07:00:19 51°14.344 2°53.867 229 11.4 227 9.3
2011-10-10 07:00:24 51°14.334 2°53.847 228.8 11.4 229 9.1
2011-10-10 07:00:30 51°14.322 2°53.825 228 11.4 229 9.6
2011-10-10 07:00:34 51°14.313 2°53.811 227.8 11.2 226 10.2
2011-10-10 07:00:40 51°14.3 2°53.79 228 11.2 227 -999
2011-10-10 07:00:45 51°14.289 2°53.773 225.4 11 225 -999
2011-10-10 07:00:50 51°14.279 2°53.754 227.3 11.1 228 9
2011-10-10 07:00:55 51°14.268 2°53.735 228.3 11.3 228 9.7
2011-10-10 07:01:00 51°14.258 2°53.717 228.2 11.1 227 9.3
2011-10-10 07:01:05 51°14.247 2°53.7 226.8 11.1 227 10.1
2011-10-10 07:01:10 51°14.236 2°53.681 226.5 11.2 226 9.6
2011-10-10 07:01:14 51°14.227 2°53.667 226.5 11.5 227 9.2
2011-10-10 07:01:19 51°14.217 2°53.648 226.5 11.3 227 9.1
2011-10-10 07:01:24 51°14.206 2°53.629 226.3 11.4 228 9.9
2011-10-10 07:01:30 51°14.194 2°53.606 228.7 11.5 229 9.7
2011-10-10 07:01:34 51°14.186 2°53.59 229.7 11.6 231 9.4
2011-10-10 07:01:38 51°14.178 2°53.574 230.6 11.6 232 9
2011-10-10 07:01:44 51°14.165 2°53.55 231.1 11.4 232 8.8
2011-10-10 07:01:50 51°14.154 2°53.527 230.9 11.3 232 9
2011-10-10 07:01:54 51°14.146 2°53.51 231.6 11.3 233 9.6
2011-10-10 07:01:59 51°14.137 2°53.49 232.9 11.3 234 9.1
2011-10-10 07:02:04 51°14.127 2°53.471 232.3 11.4 231 9.5
2011-10-10 07:02:10 51°14.115 2°53.447 231 11.3 231 9.9
2011-10-10 07:02:14 51°14.107 2°53.432 231.4 11.4 231 10.1
2011-10-10 07:02:19 51°14.098 2°53.412 231.7 11.3 232 9.5
2011-10-10 07:02:24 51°14.088 2°53.393 231.8 11.3 231 10.5
2011-10-10 07:02:30 51°14.076 2°53.37 231.8 11.2 230 9.7
2011-10-10 07:02:34 51°14.068 2°53.354 231.8 11.3 232 10.1
2011-10-10 07:02:39 51°14.059 2°53.334 232.8 11.2 232 9.7
2011-10-10 07:02:44 51°14.049 2°53.315 232.3 11.3 231 9.7
2011-10-10 07:02:50 51°14.038 2°53.291 231.8 11.3 233 9.3
2011-10-10 07:02:54 51°14.03 2°53.275 231.9 11.5 232 9.3
2011-10-10 07:02:59 51°14.02 2°53.255 233 11.5 234 9.7
2011-10-10 07:03:04 51°14.011 2°53.235 233.2 11.5 232 9.9
2011-10-10 07:03:09 51°14.002 2°53.214 233.2 11.6 234 10
2011-10-10 07:03:14 51°13.992 2°53.194 233.2 11.5 233 9.4
2011-10-10 07:03:19 51°13.982 2°53.174 233.1 11.3 232 9.5
2011-10-10 07:03:24 51°13.973 2°53.155 232.2 11 232 -999
2011-10-10 07:03:30 51°13.961 2°53.134 232.3 10.7 230 10
2011-10-10 07:03:35 51°13.952 2°53.115 232.3 10.7 232 10.1
2011-10-10 07:03:40 51°13.942 2°53.097 232.1 10.9 228 11
2011-10-10 07:03:45 51°13.934 2°53.076 232.3 11.1 234 10.1
2011-10-10 07:03:50 51°13.924 2°53.058 232.8 10.9 231 9.1
2011-10-10 07:03:54 51°13.917 2°53.042 232.9 11.1 233 9.6
2011-10-10 07:03:59 51°13.908 2°53.022 232.3 11.2 233 10.1
2011-10-10 07:04:04 51°13.898 2°53.002 234.4 11.1 235 9.3
2011-10-10 07:04:10 51°13.887 2°52.979 234.8 11.2 231 9.9
2011-10-10 07:04:14 51°13.88 2°52.962 233.8 11.1 236 8.8
2011-10-10 07:04:20 51°13.869 2°52.941 234.2 10.8 230 -999
2011-10-10 07:04:25 51°13.86 2°52.921 233.2 10.9 234 10.2
2011-10-10 07:04:30 51°13.851 2°52.903 234 10.9 233 9.5
2011-10-10 07:04:35 51°13.842 2°52.883 233.3 11 232 10.4
2011-10-10 07:04:40 51°13.832 2°52.863 234.2 11.1 232 9.9
2011-10-10 07:04:45 51°13.824 2°52.844 234.7 11 235 9.3
2011-10-10 07:04:50 51°13.814 2°52.824 234.4 11 234 9.5
2011-10-10 07:04:54 51°13.808 2°52.807 235 11 236 9.3
2011-10-10 07:04:59 51°13.799 2°52.787 235.2 11.3 236 9.5
2011-10-10 07:05:04 51°13.79 2°52.766 236.5 11.3 238 9
2011-10-10 07:05:10 51°13.78 2°52.741 237 11.2 238 9.4
2011-10-10 07:05:14 51°13.773 2°52.724 236.8 11.2 237 10.2
2011-10-10 07:05:19 51°13.765 2°52.704 237.4 11.3 238 10.4
2011-10-10 07:05:24 51°13.757 2°52.682 238.7 11.2 237 10.1
2011-10-10 07:05:29 51°13.749 2°52.662 238.2 11.1 235 10.7
2011-10-10 07:05:34 51°13.74 2°52.641 238.2 11.2 235 10.3
2011-10-10 07:05:39 51°13.731 2°52.62 237.3 11.3 238 10.2
2011-10-10 07:05:44 51°13.723 2°52.599 237.9 11.4 239 10.2
2011-10-10 07:05:50 51°13.713 2°52.573 238.6 11.5 238 10.5
2011-10-10 07:05:54 51°13.706 2°52.557 238.6 11.3 234 11.5
2011-10-10 07:06:00 51°13.695 2°52.532 237.8 11.2 234 -999
2011-10-10 07:06:06 51°13.685 2°52.508 235.4 11.2 236 -999
2011-10-10 07:06:10 51°13.678 2°52.491 236.4 11.4 238 10.4
2011-10-10 07:06:15 51°13.67 2°52.469 236.8 11.6 237 10.2
2011-10-10 07:06:20 51°13.661 2°52.447 237.7 11.6 238 9.6
2011-10-10 07:06:26 51°13.65 2°52.424 237.6 11 233 -999
2011-10-10 07:06:31 51°13.641 2°52.404 236 10.9 234 -999
2011-10-10 07:06:36 51°13.633 2°52.384 235.8 11 237 9.6
2011-10-10 07:06:41 51°13.624 2°52.365 236.1 10.7 237 9.7
2011-10-10 07:06:46 51°13.617 2°52.345 236.8 10.8 237 10.9
2011-10-10 07:06:51 51°13.608 2°52.325 238 10.8 236 10.6
2011-10-10 07:06:56 51°13.601 2°52.305 237.5 10.9 237 10.7
2011-10-10 07:07:01 51°13.592 2°52.284 236.7 11 236 10
2011-10-10 07:07:06 51°13.584 2°52.263 236 11.3 237 10.5
2011-10-10 07:07:10 51°13.577 2°52.247 236.2 11.3 237 10.2
2011-10-10 07:07:15 51°13.568 2°52.226 236.4 11.3 237 10.1
2011-10-10 07:07:20 51°13.56 2°52.205 236 11.5 237 10.1
2011-10-10 07:07:25 51°13.551 2°52.182 236.7 11.6 239 9.9
2011-10-10 07:07:30 51°13.543 2°52.161 238.1 11.5 237 10.6
2011-10-10 07:07:34 51°13.536 2°52.144 237.4 11.5 237 10.2
2011-10-10 07:07:39 51°13.527 2°52.123 236.8 11.5 237 10.6
2011-10-10 07:07:44 51°13.519 2°52.101 237.7 11.3 237 11
2011-10-10 07:07:49 51°13.51 2°52.081 238.2 11.4 236 10.7
2011-10-10 07:07:54 51°13.502 2°52.059 237.8 11.4 238 10.2
2011-10-10 07:07:59 51°13.494 2°52.038 238.4 11.4 239 10.2
2011-10-10 07:08:04 51°13.486 2°52.016 238.9 11.5 240 10.4
2011-10-10 07:08:10 51°13.476 2°51.989 239.6 11.6 239 10.5
2011-10-10 07:08:14 51°13.47 2°51.971 240 11.7 241 10.3
2011-10-10 07:08:19 51°13.462 2°51.949 239.9 11.7 239 10.1
2011-10-10 07:08:25 51°13.452 2°51.922 239.1 11.6 239 10.6
2011-10-10 07:08:30 51°13.443 2°51.9 239 11.6 238 11.1
2011-10-10 07:08:34 51°13.437 2°51.884 239.6 11.5 239 9.8
2011-10-10 07:08:38 51°13.431 2°51.866 238.7 11.5 239 9.7
2011-10-10 07:08:44 51°13.421 2°51.84 239.2 11.4 239 10
2011-10-10 07:08:50 51°13.412 2°51.814 238.4 11.5 239 9.9
2011-10-10 07:08:54 51°13.405 2°51.797 238 11.5 238 10.4
2011-10-10 07:08:59 51°13.396 2°51.775 237.8 11.5 239 10.4
2011-10-10 07:09:04 51°13.388 2°51.754 238.1 11.4 238 11.2
2011-10-10 07:09:10 51°13.377 2°51.728 238.6 11.4 237 11.7
2011-10-10 07:09:15 51°13.369 2°51.708 238.7 11.1 237 -999
2011-10-10 07:09:20 51°13.361 2°51.687 238.3 11.1 237 9.4
2011-10-10 07:09:25 51°13.352 2°51.666 238.1 11.1 237 10.3
2011-10-10 07:09:30 51°13.343 2°51.646 237.1 11.3 236 10.7
2011-10-10 07:09:34 51°13.337 2°51.628 237.8 11.4 239 10.8
2011-10-10 07:09:39 51°13.328 2°51.607 238.4 11.4 237 10.7
2011-10-10 07:09:44 51°13.319 2°51.586 238.1 11.4 237 10.3
2011-10-10 07:09:49 51°13.311 2°51.564 237.6 11.5 238 10.3
2011-10-10 07:09:54 51°13.302 2°51.543 238.1 11.5 238 10.1
2011-10-10 07:09:59 51°13.294 2°51.522 238 11.5 237 11.2
2011-10-10 07:10:04 51°13.285 2°51.5 238.3 11.7 239 11
2011-10-10 07:10:09 51°13.277 2°51.478 238.8 11.6 238 10.7
2011-10-10 07:10:14 51°13.269 2°51.456 238.9 11.7 239 10.5
2011-10-10 07:10:19 51°13.261 2°51.434 239.3 11.7 239 11
2011-10-10 07:10:24 51°13.253 2°51.411 239.8 11.9 240 11.2
2011-10-10 07:10:30 51°13.243 2°51.385 240.3 11.5 240 -999
2011-10-10 07:10:34 51°13.236 2°51.368 238.2 11.6 237 10.9
2011-10-10 07:10:39 51°13.228 2°51.346 238.4 11.6 240 10.7
2011-10-10 07:10:44 51°13.219 2°51.325 238.9 11.5 237 11.1
2011-10-10 07:10:49 51°13.211 2°51.303 239 11.1 237 9.8
2011-10-10 07:10:54 51°13.202 2°51.283 237 11.2 236 10
2011-10-10 07:10:59 51°13.194 2°51.262 236.9 11.3 237 10.3
2011-10-10 07:11:04 51°13.185 2°51.242 236.7 11.2 235 10.6
2011-10-10 07:11:10 51°13.175 2°51.216 236.9 11.4 239 10.6
2011-10-10 07:11:14 51°13.168 2°51.199 237.7 11.5 237 10.3
2011-10-10 07:11:19 51°13.16 2°51.177 237.1 11.5 238 10.2
2011-10-10 07:11:24 51°13.152 2°51.156 237.2 11.4 238 10.2
2011-10-10 07:11:30 51°13.142 2°51.13 237.3 11.6 238 10.3
2011-10-10 07:11:34 51°13.135 2°51.112 237.7 11.6 239 10.1
2011-10-10 07:11:39 51°13.126 2°51.091 238.2 11.4 238 10.9
2011-10-10 07:11:45 51°13.116 2°51.066 238.9 11.3 239 11
2011-10-10 07:11:50 51°13.108 2°51.045 238.2 11.2 236 10.6
2011-10-10 07:11:54 51°13.101 2°51.028 237.9 11.2 239 11.2
2011-10-10 07:11:59 51°13.093 2°51.007 239.4 11.2 239 10.8
2011-10-10 07:12:04 51°13.085 2°50.986 238.8 11.2 238 10.8
2011-10-10 07:12:09 51°13.076 2°50.965 238.5 11.4 238 10.8
2011-10-10 07:12:14 51°13.068 2°50.943 238.2 11.5 238 10.8
2011-10-10 07:12:19 51°13.06 2°50.922 239.2 11.4 240 10.9
2011-10-10 07:12:24 51°13.051 2°50.9 238.9 11.5 236 10.5
2011-10-10 07:12:30 51°13.04 2°50.875 238 11.4 237 9.8
2011-10-10 07:12:34 51°13.033 2°50.858 237.8 11.4 236 11.1
2011-10-10 07:12:39 51°13.025 2°50.837 237.9 11.4 237 10.3
2011-10-10 07:12:44 51°13.016 2°50.816 238.2 11.4 237 10.4
2011-10-10 07:12:50 51°13.007 2°50.79 238.9 11.3 239 10.4
2011-10-10 07:12:54 51°12.999 2°50.774 238.3 11.4 235 10.8
2011-10-10 07:13:00 51°12.989 2°50.748 238.1 11.6 238 10.4
2011-10-10 07:13:05 51°12.98 2°50.726 238.1 11.5 237 10.2
2011-10-10 07:13:10 51°12.972 2°50.705 238.2 11.6 238 10.2
2011-10-10 07:13:14 51°12.964 2°50.687 237.8 11.7 237 10.2
2011-10-10 07:13:18 51°12.957 2°50.67 238.5 11.7 236 10.8
2011-10-10 07:13:24 51°12.946 2°50.645 238.2 11.4 236 10.1
2011-10-10 07:13:30 51°12.936 2°50.621 236.5 11.3 236 11.3
2011-10-10 07:13:34 51°12.929 2°50.604 237 11.3 236 10
2011-10-10 07:13:39 51°12.921 2°50.583 237.5 11.3 237 10.5
2011-10-10 07:13:44 51°12.912 2°50.562 237.4 11.3 236 9.9
2011-10-10 07:13:49 51°12.902 2°50.542 237.1 11.4 235 10.6
2011-10-10 07:13:54 51°12.894 2°50.52 237.4 11.6 237 11
2011-10-10 07:13:59 51°12.885 2°50.499 238 11.6 236 11.5
2011-10-10 07:14:04 51°12.876 2°50.477 238.4 11.6 237 10.6
2011-10-10 07:14:09 51°12.868 2°50.456 238.9 11.3 239 9.8
2011-10-10 07:14:14 51°12.86 2°50.435 239.3 11.2 239 10.1
2011-10-10 07:14:20 51°12.85 2°50.409 239.4 11.4 239 10.1
2011-10-10 07:14:24 51°12.843 2°50.391 240.3 11.4 240 10.5
2011-10-10 07:14:29 51°12.835 2°50.371 240.1 11.3 237 11.8
2011-10-10 07:14:34 51°12.827 2°50.349 240.3 11.2 239 -999
2011-10-10 07:14:40 51°12.817 2°50.324 238 11.3 238 10.6
2011-10-10 07:14:45 51°12.809 2°50.302 238.3 11.4 240 10.5
2011-10-10 07:14:50 51°12.8 2°50.28 238.7 11.6 239 10.7
2011-10-10 07:14:54 51°12.794 2°50.263 238.4 11.7 238 10.5
2011-10-10 07:14:59 51°12.785 2°50.241 237.9 11.6 237 9.7
2011-10-10 07:15:04 51°12.776 2°50.22 236.6 11.5 236 10.4
2011-10-10 07:15:09 51°12.768 2°50.199 237.3 11.6 238 11
2011-10-10 07:15:14 51°12.759 2°50.178 237.5 11.5 237 11
2011-10-10 07:15:19 51°12.751 2°50.155 237.6 11.6 240 10
2011-10-10 07:15:24 51°12.742 2°50.134 237.9 11.5 237 9.9
2011-10-10 07:15:29 51°12.734 2°50.113 237.2 11.6 237 11.3
2011-10-10 07:15:34 51°12.725 2°50.092 237.5 11.4 236 11.6
2011-10-10 07:15:40 51°12.714 2°50.067 236.7 11.1 237 -999
2011-10-10 07:15:45 51°12.706 2°50.047 236.2 11.2 238 10.3
2011-10-10 07:15:50 51°12.698 2°50.025 237.3 11.4 238 10.8
2011-10-10 07:15:54 51°12.691 2°50.008 238 11.5 237 10.7
2011-10-10 07:15:59 51°12.682 2°49.987 237.6 11.5 237 10.7
2011-10-10 07:16:04 51°12.673 2°49.965 237.5 11.5 238 10.8
2011-10-10 07:16:09 51°12.665 2°49.944 238.2 11.5 238 10.9
2011-10-10 07:16:14 51°12.656 2°49.922 238.2 11.6 238 10.5
2011-10-10 07:16:19 51°12.647 2°49.9 238.2 11.7 238 10.6
2011-10-10 07:16:24 51°12.638 2°49.878 238.2 11.8 237 10.4
2011-10-10 07:16:29 51°12.629 2°49.856 238.1 11.8 237 10.5
2011-10-10 07:16:34 51°12.62 2°49.835 238.2 11.7 237 9.9
2011-10-10 07:16:39 51°12.612 2°49.813 238 11.5 238 11
2011-10-10 07:16:44 51°12.603 2°49.792 239.4 11.5 237 10.9
2011-10-10 07:16:50 51°12.593 2°49.767 239.6 11.4 236 10.9
2011-10-10 07:16:54 51°12.587 2°49.749 237.8 11.3 238 10.7
2011-10-10 07:16:59 51°12.578 2°49.728 239.3 11.4 238 10.1
2011-10-10 07:17:04 51°12.57 2°49.707 239.9 11.4 237 10.5
2011-10-10 07:17:10 51°12.56 2°49.682 239.9 11.2 238 9.8
2011-10-10 07:17:14 51°12.553 2°49.665 239.3 11.3 237 10.9
2011-10-10 07:17:19 51°12.545 2°49.644 240.1 11.3 238 10.2
2011-10-10 07:17:24 51°12.537 2°49.622 239.6 11.4 240 9.9
2011-10-10 07:17:30 51°12.527 2°49.595 240.2 11.6 240 9.9
2011-10-10 07:17:34 51°12.52 2°49.577 240.3 11.7 241 10.1
2011-10-10 07:17:39 51°12.512 2°49.555 241.2 11.7 240 10.2
2011-10-10 07:17:45 51°12.503 2°49.527 240.5 11.9 241 10.3
2011-10-10 07:17:50 51°12.495 2°49.504 241.3 11.8 241 10.1
2011-10-10 07:17:54 51°12.488 2°49.486 241.5 11.8 241 9.7
2011-10-10 07:17:59 51°12.48 2°49.464 240.1 11.8 239 10.3
2011-10-10 07:18:04 51°12.472 2°49.442 240.4 11.7 241 9.5
2011-10-10 07:18:10 51°12.462 2°49.416 240.6 11.6 240 10.1
2011-10-10 07:18:14 51°12.456 2°49.398 239.9 11.7 240 10
2011-10-10 07:18:19 51°12.447 2°49.375 240.5 11.7 240 9.9
2011-10-10 07:18:24 51°12.439 2°49.353 240.3 11.6 239 10.6
2011-10-10 07:18:29 51°12.432 2°49.331 240.9 11.5 241 10.1
2011-10-10 07:18:34 51°12.424 2°49.308 240.9 11.6 241 9.8
2011-10-10 07:18:39 51°12.416 2°49.286 241.4 11.6 242 10.2
2011-10-10 07:18:44 51°12.408 2°49.263 241 11.7 242 10.4
2011-10-10 07:18:49 51°12.401 2°49.24 241.8 11.7 242 10.3
2011-10-10 07:18:54 51°12.393 2°49.218 242.3 11.7 241 10.6
2011-10-10 07:18:59 51°12.386 2°49.194 242.5 11.6 243 9.9
2011-10-10 07:19:04 51°12.378 2°49.172 242.5 11.7 243 9.9
2011-10-10 07:19:10 51°12.369 2°49.144 242.7 11.6 243 10.7
2011-10-10 07:19:14 51°12.364 2°49.125 243.7 11.7 243 11
2011-10-10 07:19:19 51°12.357 2°49.102 244 11.7 244 10.3
2011-10-10 07:19:24 51°12.349 2°49.079 243.2 11.7 242 10.5
2011-10-10 07:19:30 51°12.34 2°49.051 242.8 11.7 244 10.3
2011-10-10 07:19:34 51°12.334 2°49.033 243.6 11.6 243 10.4
2011-10-10 07:19:39 51°12.327 2°49.01 243.6 11.6 243 10.3
2011-10-10 07:19:44 51°12.319 2°48.987 243 11.6 242 10.5
2011-10-10 07:19:50 51°12.31 2°48.96 242.5 11.7 243 10.7
2011-10-10 07:19:54 51°12.305 2°48.941 244.1 11.7 245 10.3
2011-10-10 07:19:59 51°12.298 2°48.918 244.1 11.7 244 10.4
2011-10-10 07:20:04 51°12.29 2°48.894 244.3 11.8 243 10
2011-10-10 07:20:10 51°12.282 2°48.866 244.4 11.7 244 10
2011-10-10 07:20:14 51°12.276 2°48.848 244 11.8 244 10.3
2011-10-10 07:20:19 51°12.269 2°48.824 244.1 11.8 245 10.5
2011-10-10 07:20:24 51°12.262 2°48.801 244.5 11.7 243 9.9
2011-10-10 07:20:29 51°12.255 2°48.778 244 11.7 244 10.4
2011-10-10 07:20:34 51°12.247 2°48.756 244.2 11.6 243 10
2011-10-10 07:20:39 51°12.24 2°48.732 243.6 11.7 244 10.3
2011-10-10 07:20:44 51°12.233 2°48.709 244.4 11.7 244 10.4
2011-10-10 07:20:49 51°12.226 2°48.686 244.7 11.7 244 10.6
2011-10-10 07:20:54 51°12.219 2°48.663 244.8 11.5 244 10.8
2011-10-10 07:20:59 51°12.212 2°48.641 244.8 11.4 244 11
2011-10-10 07:21:04 51°12.204 2°48.618 244 11.5 244 10.3
2011-10-10 07:21:10 51°12.196 2°48.59 244.3 11.5 244 10.6
2011-10-10 07:21:14 51°12.191 2°48.572 244.5 11.5 244 10.4
2011-10-10 07:21:19 51°12.184 2°48.549 244.8 11.7 245 10.9
2011-10-10 07:21:24 51°12.177 2°48.526 245.4 11.6 243 10.6
2011-10-10 07:21:30 51°12.168 2°48.498 246.9 11.6 244 10.7
2011-10-10 07:21:34 51°12.163 2°48.48 245.5 11.5 243 10.1
2011-10-10 07:21:39 51°12.156 2°48.458 245 11.5 244 10.4
2011-10-10 07:21:44 51°12.149 2°48.435 245.2 11.6 245 10.5
2011-10-10 07:21:50 51°12.141 2°48.407 245.5 11.6 245 11
2011-10-10 07:21:54 51°12.135 2°48.389 245.9 11.7 244 10.6
2011-10-10 07:21:59 51°12.129 2°48.366 246 11.5 244 10.4
2011-10-10 07:22:04 51°12.121 2°48.343 244.8 11.4 243 10.5
2011-10-10 07:22:10 51°12.113 2°48.316 245.1 11.4 245 10.9
2011-10-10 07:22:14 51°12.108 2°48.298 246.4 11.3 244 10.9
2011-10-10 07:22:19 51°12.101 2°48.276 246.4 11.4 244 11.2
2011-10-10 07:22:24 51°12.094 2°48.253 246.6 11.5 245 11
2011-10-10 07:22:30 51°12.086 2°48.225 246.1 11.5 245 10.8
2011-10-10 07:22:34 51°12.081 2°48.207 246.5 11.4 246 10.9
2011-10-10 07:22:39 51°12.074 2°48.184 246.9 11.5 244 11.2
2011-10-10 07:22:44 51°12.067 2°48.162 245.9 11.4 243 10.8
2011-10-10 07:22:49 51°12.061 2°48.139 245.8 11.4 243 11.3
2011-10-10 07:22:54 51°12.053 2°48.117 245.4 11.6 243 10.9
2011-10-10 07:22:59 51°12.046 2°48.094 245.1 11.6 244 10.7
2011-10-10 07:23:04 51°12.039 2°48.071 245.4 11.6 244 11
2011-10-10 07:23:09 51°12.032 2°48.048 246.2 11.3 244 10.4
2011-10-10 07:23:14 51°12.024 2°48.025 245.5 11.4 243 10.3
2011-10-10 07:23:19 51°12.017 2°48.002 244.4 11.6 244 10.7
2011-10-10 07:23:24 51°12.01 2°47.979 245.3 11.5 244 10.3
2011-10-10 07:23:30 51°12.002 2°47.952 245.3 11.6 245 10.7
2011-10-10 07:23:34 51°11.997 2°47.933 245.5 11.6 245 10.5
2011-10-10 07:23:39 51°11.99 2°47.91 245.7 11.5 246 10.3
2011-10-10 07:23:44 51°11.983 2°47.887 246 11.7 245 11
2011-10-10 07:23:50 51°11.976 2°47.859 246.5 11.7 246 10.4
2011-10-10 07:23:54 51°11.97 2°47.84 246.7 11.7 245 11.3
2011-10-10 07:23:59 51°11.963 2°47.816 246.9 11.8 246 10.7
2011-10-10 07:24:04 51°11.957 2°47.793 247 11.8 246 11
2011-10-10 07:24:10 51°11.949 2°47.764 247.8 11.8 246 10.8
2011-10-10 07:24:14 51°11.943 2°47.745 246.8 11.8 246 10.8
2011-10-10 07:24:19 51°11.937 2°47.722 247.2 11.8 246 10.5
2011-10-10 07:24:24 51°11.93 2°47.698 246.5 11.7 245 10.7
2011-10-10 07:24:30 51°11.923 2°47.67 246.6 11.8 246 10.7
2011-10-10 07:24:34 51°11.918 2°47.65 247 11.8 247 10.8
2011-10-10 07:24:39 51°11.911 2°47.627 247.7 11.7 247 11
2011-10-10 07:24:44 51°11.904 2°47.603 247.2 11.7 247 10.8
2011-10-10 07:24:50 51°11.896 2°47.575 246.2 11.7 245 10.9
2011-10-10 07:24:54 51°11.891 2°47.556 245.7 11.7 245 10.9
2011-10-10 07:24:59 51°11.884 2°47.533 245.6 11.7 244 10.8
2011-10-10 07:25:04 51°11.876 2°47.511 244.8 11.7 242 10.7
2011-10-10 07:25:09 51°11.869 2°47.488 243.9 11.3 243 10.3
2011-10-10 07:25:14 51°11.862 2°47.466 243.4 11.5 243 11
2011-10-10 07:25:19 51°11.854 2°47.443 243.7 11.6 243 11.6
2011-10-10 07:25:24 51°11.847 2°47.42 244.6 11.4 244 11
2011-10-10 07:25:30 51°11.838 2°47.393 244.7 11.4 243 -999
2011-10-10 07:25:35 51°11.831 2°47.37 244 11.3 243 11.4
2011-10-10 07:25:40 51°11.824 2°47.348 244 11.4 244 10.8
2011-10-10 07:25:45 51°11.817 2°47.325 244.2 11.5 243 10.8
2011-10-10 07:25:50 51°11.81 2°47.303 243.9 11.4 242 10.8
2011-10-10 07:25:54 51°11.804 2°47.285 243.3 11.3 242 11.2
2011-10-10 07:25:59 51°11.796 2°47.264 242.5 11.4 241 11.1
2011-10-10 07:26:04 51°11.789 2°47.241 242.9 11.5 243 10.6
2011-10-10 07:26:10 51°11.781 2°47.214 244.3 11.2 244 10.5
2011-10-10 07:26:14 51°11.775 2°47.196 244 11.4 243 10.9
2011-10-10 07:26:19 51°11.768 2°47.174 244 11.6 244 10.5
2011-10-10 07:26:24 51°11.76 2°47.151 244.3 11.3 243 10.2
2011-10-10 07:26:30 51°11.752 2°47.125 243.6 11.2 243 10.3
2011-10-10 07:26:34 51°11.747 2°47.107 244 11.2 244 11
2011-10-10 07:26:38 51°11.741 2°47.09 244.7 11.3 243 11
2011-10-10 07:26:44 51°11.733 2°47.062 244.9 11.4 245 10.5
2011-10-10 07:26:50 51°11.724 2°47.035 244.8 11.5 244 10.7
2011-10-10 07:26:54 51°11.719 2°47.017 245.3 11.4 245 10.8
2011-10-10 07:26:59 51°11.712 2°46.994 245.4 11.4 245 11.2
2011-10-10 07:27:04 51°11.705 2°46.971 245.4 11.5 243 10.3
2011-10-10 07:27:10 51°11.697 2°46.945 244.5 11.1 243 10.5
2011-10-10 07:27:14 51°11.691 2°46.927 244.3 11.3 245 11.1
2011-10-10 07:27:19 51°11.684 2°46.905 245.1 11.2 244 10.2
2011-10-10 07:27:24 51°11.678 2°46.882 245.6 11.3 245 10.3
2011-10-10 07:27:29 51°11.671 2°46.86 245.6 11.4 245 10.3
2011-10-10 07:27:34 51°11.664 2°46.837 245.6 11.5 246 10.4
2011-10-10 07:27:39 51°11.658 2°46.814 246.1 11.6 245 10.9
2011-10-10 07:27:44 51°11.652 2°46.79 246.6 11.5 247 10.5
2011-10-10 07:27:49 51°11.645 2°46.767 246.7 11.6 245 10.6
2011-10-10 07:27:54 51°11.639 2°46.743 246.5 11.5 247 10.6
2011-10-10 07:27:59 51°11.632 2°46.721 247.3 11.6 245 10.9
2011-10-10 07:28:04 51°11.625 2°46.697 246.6 11.7 246 10.4
2011-10-10 07:28:09 51°11.619 2°46.674 246.8 11.5 246 10.9
2011-10-10 07:28:14 51°11.612 2°46.65 247 11.6 247 11
2011-10-10 07:28:19 51°11.606 2°46.626 247.5 11.7 247 10.5
2011-10-10 07:28:24 51°11.599 2°46.604 246.9 11.5 244 11.3
2011-10-10 07:28:30 51°11.591 2°46.575 246.1 11.8 244 11.5
2011-10-10 07:28:34 51°11.585 2°46.557 245.5 11.7 244 11.3
2011-10-10 07:28:39 51°11.578 2°46.534 245.6 11.6 243 11.2
2011-10-10 07:28:44 51°11.571 2°46.511 245.4 11.6 244 10.6
2011-10-10 07:28:50 51°11.563 2°46.483 245.2 11.7 245 10.9
2011-10-10 07:28:54 51°11.557 2°46.465 245.9 11.6 244 10.7
2011-10-10 07:28:59 51°11.55 2°46.442 244.8 11.6 243 10.6
2011-10-10 07:29:04 51°11.542 2°46.419 244.3 11.5 242 10.2
2011-10-10 07:29:10 51°11.534 2°46.392 243.7 11.6 244 10.8
2011-10-10 07:29:14 51°11.528 2°46.374 244 11.6 243 10.5
2011-10-10 07:29:19 51°11.521 2°46.351 243.9 11.6 245 10.6
2011-10-10 07:29:24 51°11.514 2°46.327 244.8 11.7 245 10.4
2011-10-10 07:29:29 51°11.508 2°46.305 246.2 11.4 246 11.3
2011-10-10 07:29:34 51°11.501 2°46.282 247 11.4 242 11.1
2011-10-10 07:29:40 51°11.493 2°46.255 247.2 11.1 247 11.5
2011-10-10 07:29:45 51°11.487 2°46.232 246.9 11.1 248 11.1
2011-10-10 07:29:50 51°11.481 2°46.21 248.5 11 247 10.1
2011-10-10 07:29:54 51°11.476 2°46.192 248.4 11.2 248 11.1
2011-10-10 07:29:59 51°11.471 2°46.169 249.8 10.7 248 10.2
2011-10-10 07:30:04 51°11.465 2°46.147 249.2 10.9 247 10.9
2011-10-10 07:30:09 51°11.46 2°46.124 249.1 11.1 251 10.8
2011-10-10 07:30:14 51°11.454 2°46.101 250 11.1 250 11.1
2011-10-10 07:30:19 51°11.449 2°46.078 250.3 11.2 249 11.5
2011-10-10 07:30:24 51°11.443 2°46.054 251.2 11.4 249 11
2011-10-10 07:30:29 51°11.437 2°46.03 251.2 11.5 249 11.1
2011-10-10 07:30:34 51°11.432 2°46.006 251 11.5 250 11.3
2011-10-10 07:30:39 51°11.427 2°45.982 251.6 11.5 250 11.1
2011-10-10 07:30:44 51°11.421 2°45.959 251.4 11.6 249 11.5
2011-10-10 07:30:49 51°11.415 2°45.935 251.5 11.6 249 11.3
2011-10-10 07:30:54 51°11.409 2°45.911 251.6 11.5 249 10.4
2011-10-10 07:30:59 51°11.404 2°45.887 250.4 11.5 249 10.6
2011-10-10 07:31:04 51°11.398 2°45.864 250.8 11.4 250 11.1
2011-10-10 07:31:10 51°11.391 2°45.835 250.8 11.5 249 10.7
2011-10-10 07:31:14 51°11.387 2°45.816 250 11.6 250 10.9
2011-10-10 07:31:19 51°11.381 2°45.792 250.7 11.6 250 10.5
2011-10-10 07:31:24 51°11.376 2°45.768 250.7 11.8 250 10.1
2011-10-10 07:31:30 51°11.369 2°45.74 250.1 11.3 249 10.1
2011-10-10 07:31:34 51°11.364 2°45.721 249.2 11.5 249 10.7
2011-10-10 07:31:39 51°11.358 2°45.697 249.6 11.5 248 11
2011-10-10 07:31:44 51°11.352 2°45.674 249.5 11.4 248 11.2
2011-10-10 07:31:49 51°11.346 2°45.65 249.8 11.6 249 11.3
2011-10-10 07:31:54 51°11.341 2°45.626 250.2 11.7 249 10.8
2011-10-10 07:31:59 51°11.335 2°45.602 250.2 11.6 247 10.9
2011-10-10 07:32:04 51°11.329 2°45.579 250.5 11.1 248 10.5
2011-10-10 07:32:10 51°11.322 2°45.552 249.1 11.2 248 10.8
2011-10-10 07:32:14 51°11.318 2°45.533 249.8 11.2 250 11.4
2011-10-10 07:32:19 51°11.311 2°45.51 250.2 11.4 248 11.2
2011-10-10 07:32:24 51°11.305 2°45.487 249.4 11.4 246 12.2
2011-10-10 07:32:30 51°11.298 2°45.46 248.3 11.1 246 -999
2011-10-10 07:32:35 51°11.292 2°45.438 246.7 11.2 247 11.3
2011-10-10 07:32:40 51°11.286 2°45.414 248.6 11.3 249 10.9
2011-10-10 07:32:45 51°11.28 2°45.39 249.1 11.6 247 11.3
2011-10-10 07:32:50 51°11.273 2°45.368 248.9 11.5 245 10.9
2011-10-10 07:32:54 51°11.268 2°45.349 247.3 11.6 245 10.7
2011-10-10 07:32:59 51°11.262 2°45.326 246.6 11.7 247 10.9
2011-10-10 07:33:04 51°11.255 2°45.302 247.6 11.5 246 10.6
2011-10-10 07:33:09 51°11.248 2°45.279 246.8 11.5 246 10.6
2011-10-10 07:33:14 51°11.242 2°45.256 247.6 11.4 247 11
2011-10-10 07:33:19 51°11.235 2°45.233 247.1 11.4 246 11
2011-10-10 07:33:24 51°11.229 2°45.21 247.4 11.3 246 11.8
2011-10-10 07:33:30 51°11.222 2°45.183 247.9 11.1 247 11.1
2011-10-10 07:33:34 51°11.217 2°45.165 248.6 11 248 11.5
2011-10-10 07:33:39 51°11.211 2°45.142 248.6 11.3 248 11.2
2011-10-10 07:33:44 51°11.205 2°45.118 248.4 11.4 248 11.3
2011-10-10 07:33:49 51°11.199 2°45.095 249.8 11.1 249 10.5
2011-10-10 07:33:54 51°11.194 2°45.072 249.8 11.3 248 11
2011-10-10 07:33:59 51°11.188 2°45.048 249.7 11.5 249 11.3
2011-10-10 07:34:04 51°11.182 2°45.024 250.5 11.6 249 11.4
2011-10-10 07:34:10 51°11.175 2°44.996 249.9 11.6 248 10.6
2011-10-10 07:34:14 51°11.17 2°44.977 249.5 11.4 248 10.2
2011-10-10 07:34:20 51°11.164 2°44.949 250.4 11.2 250 10.9
2011-10-10 07:34:25 51°11.159 2°44.926 251.3 11.3 252 10.3
2011-10-10 07:34:30 51°11.155 2°44.902 252.4 11.3 253 10.2
2011-10-10 07:34:34 51°11.151 2°44.883 253.4 11.4 252 10.7
2011-10-10 07:34:39 51°11.147 2°44.858 254.7 11.3 255 11.5
2011-10-10 07:34:44 51°11.143 2°44.834 256.6 11.4 256 11.1
2011-10-10 07:34:49 51°11.139 2°44.81 257.9 11.3 256 11.6
2011-10-10 07:34:54 51°11.135 2°44.785 258.5 11.2 257 11.1
2011-10-10 07:34:59 51°11.132 2°44.761 259.4 11.2 259 11.8
2011-10-10 07:35:04 51°11.129 2°44.737 260.7 11.3 260 11.1
2011-10-10 07:35:10 51°11.126 2°44.708 261.4 11.1 261 11
2011-10-10 07:35:14 51°11.125 2°44.688 261.8 11.2 262 11.1
2011-10-10 07:35:19 51°11.122 2°44.664 262.7 11.1 261 12
2011-10-10 07:35:24 51°11.12 2°44.639 263 11.2 260 11.4
2011-10-10 07:35:30 51°11.117 2°44.61 262.3 11.3 261 11.5
2011-10-10 07:35:34 51°11.115 2°44.59 262.8 11.3 261 11.4
2011-10-10 07:35:39 51°11.112 2°44.566 262.2 10.9 258 10.4
2011-10-10 07:35:45 51°11.109 2°44.539 260.4 10.8 260 10.8
2011-10-10 07:35:50 51°11.106 2°44.515 260.9 10.9 259 11.8
2011-10-10 07:35:54 51°11.103 2°44.496 261.3 11.2 260 11.8
2011-10-10 07:35:59 51°11.101 2°44.472 261.9 11 260 11.1
2011-10-10 07:36:04 51°11.098 2°44.448 262.1 11.2 259 11.5
2011-10-10 07:36:10 51°11.094 2°44.419 260.8 11.3 259 11.6
2011-10-10 07:36:14 51°11.092 2°44.399 261.3 11.3 260 11.5
2011-10-10 07:36:19 51°11.089 2°44.374 261.5 11.4 260 11.9
2011-10-10 07:36:24 51°11.087 2°44.349 261.7 11.4 261 11.8
2011-10-10 07:36:30 51°11.083 2°44.32 262 11.3 259 11.5
2011-10-10 07:36:34 51°11.081 2°44.3 261.4 11.3 260 12.2
2011-10-10 07:36:39 51°11.079 2°44.276 262.1 11.3 259 12.2
2011-10-10 07:36:44 51°11.076 2°44.251 261.7 11.3 261 11.8
2011-10-10 07:36:49 51°11.073 2°44.226 261.4 11.3 260 12.2
2011-10-10 07:36:54 51°11.07 2°44.202 261.3 11.1 259 12.6
2011-10-10 07:36:58 51°11.068 2°44.183 261.4 11.1 258 12.4
2011-10-10 07:37:04 51°11.064 2°44.154 261.2 11.2 259 12.1
2011-10-10 07:37:09 51°11.061 2°44.13 261 11.2 259 11.6
2011-10-10 07:37:14 51°11.058 2°44.106 260.6 11.3 258 11.9
2011-10-10 07:37:19 51°11.054 2°44.082 259.5 11.3 257 12.1
2011-10-10 07:37:24 51°11.051 2°44.058 259.2 11.2 256 11.8
2011-10-10 07:37:29 51°11.047 2°44.034 258.7 11.3 257 12.2
2011-10-10 07:37:34 51°11.044 2°44.01 258.5 11.3 256 11.7
2011-10-10 07:37:39 51°11.04 2°43.986 258.7 11.1 256 11.8
2011-10-10 07:37:44 51°11.036 2°43.962 257.5 11.2 255 11.7
2011-10-10 07:37:50 51°11.032 2°43.933 257.3 11.2 256 12.4
2011-10-10 07:37:54 51°11.029 2°43.914 258.5 11.1 255 11.9
2011-10-10 07:37:59 51°11.025 2°43.891 257.2 11.1 256 11.8
2011-10-10 07:38:04 51°11.022 2°43.866 257.1 11.3 257 11.8
2011-10-10 07:38:10 51°11.017 2°43.837 257.7 11.3 256 11.9
2011-10-10 07:38:14 51°11.014 2°43.818 257.9 11.3 257 12.5
2011-10-10 07:38:19 51°11.011 2°43.793 258.5 11.4 258 12.4
2011-10-10 07:38:24 51°11.009 2°43.768 260.8 11.3 262 12.2
2011-10-10 07:38:30 51°11.007 2°43.738 263.7 11.4 263 13.1
2011-10-10 07:38:34 51°11.006 2°43.718 265.8 11.1 266 12.2
2011-10-10 07:38:39 51°11.005 2°43.694 266.9 11.2 268 12.4
2011-10-10 07:38:44 51°11.005 2°43.669 268.6 11.2 268 12.8
2011-10-10 07:38:49 51°11.004 2°43.644 269.6 11.3 270 12.2
2011-10-10 07:38:54 51°11.004 2°43.619 270.5 11.2 270 12.9
2011-10-10 07:38:59 51°11.005 2°43.594 271.5 11.3 271 12.2
2011-10-10 07:39:04 51°11.005 2°43.569 271.9 11.4 270 12.3
2011-10-10 07:39:09 51°11.005 2°43.544 272 11.3 272 12.1
2011-10-10 07:39:14 51°11.006 2°43.519 272.4 11.5 271 11.9
2011-10-10 07:39:19 51°11.006 2°43.494 272 11.4 271 12
2011-10-10 07:39:24 51°11.007 2°43.469 272.6 11.2 271 11.9
2011-10-10 07:39:29 51°11.007 2°43.444 272.1 11.3 271 12.5
2011-10-10 07:39:34 51°11.007 2°43.419 271.9 11.2 271 12.9
2011-10-10 07:39:39 51°11.008 2°43.394 272.1 11.3 272 12.1
2011-10-10 07:39:44 51°11.008 2°43.369 272.1 11.2 271 12.5
2011-10-10 07:39:50 51°11.007 2°43.34 272.3 11 268 12.4
2011-10-10 07:39:54 51°11.007 2°43.321 270.8 10.9 268 12.1
2011-10-10 07:39:58 51°11.006 2°43.302 269.2 11 267 12.6
2011-10-10 07:40:04 51°11.006 2°43.272 269.3 11.1 268 13.3
2011-10-10 07:40:10 51°11.005 2°43.243 269.2 10.9 268 12.6
2011-10-10 07:40:14 51°11.005 2°43.224 269.4 10.7 268 13
2011-10-10 07:40:18 51°11.004 2°43.205 268.9 10.9 268 13
2011-10-10 07:40:24 51°11.003 2°43.176 268.5 11 267 12.3
2011-10-10 07:40:30 51°11.003 2°43.147 268.6 11 269 12.9
2011-10-10 07:40:34 51°11.003 2°43.127 269.4 11.2 269 12.6
2011-10-10 07:40:39 51°11.003 2°43.103 269.8 11.2 270 12.3
2011-10-10 07:40:44 51°11.003 2°43.078 270.2 11.1 270 12.9
2011-10-10 07:40:50 51°11.003 2°43.049 271 11.1 271 12.7
2011-10-10 07:40:54 51°11.003 2°43.029 271.1 11.1 271 12.4
2011-10-10 07:40:59 51°11.004 2°43.005 271.5 11 272 12.8
2011-10-10 07:41:04 51°11.004 2°42.981 271.9 11 272 13.1
2011-10-10 07:41:09 51°11.005 2°42.956 272.5 11 272 12.6
2011-10-10 07:41:14 51°11.005 2°42.932 272.4 11.1 271 12.8
2011-10-10 07:41:18 51°11.006 2°42.912 272.3 11.2 272 12.7
2011-10-10 07:41:24 51°11.007 2°42.882 272.5 11.1 273 12.5
2011-10-10 07:41:29 51°11.007 2°42.858 273 10.8 273 12.4
2011-10-10 07:41:34 51°11.008 2°42.834 273.4 10.9 273 13
2011-10-10 07:41:39 51°11.009 2°42.81 273.9 10.9 274 13.5
2011-10-10 07:41:44 51°11.01 2°42.786 274.2 11 273 12.9
2011-10-10 07:41:50 51°11.01 2°42.758 273.7 10.3 272 12.8
2011-10-10 07:41:54 51°11.011 2°42.741 273.2 9.9 272 13.3
2011-10-10 07:41:59 51°11.011 2°42.72 272.5 9.3 272 12.7
2011-10-10 07:42:05 51°11.012 2°42.696 272.4 8.8 273 13
2011-10-10 07:42:10 51°11.012 2°42.677 272.4 8.6 272 13.4
2011-10-10 07:42:14 51°11.013 2°42.662 272.8 8.5 273 13.3
2011-10-10 07:42:19 51°11.013 2°42.644 273.2 8.5 273 13.5
2011-10-10 07:42:24 51°11.014 2°42.625 273.1 7.9 272 12.6
2011-10-10 07:42:30 51°11.014 2°42.606 272.8 7.6 272 13
2011-10-10 07:42:34 51°11.014 2°42.593 272.3 7.5 271 13.5
2011-10-10 07:42:38 51°11.015 2°42.58 272.6 7.4 272 13.1
2011-10-10 07:42:44 51°11.015 2°42.56 272.3 7.3 270 13.2
2011-10-10 07:42:50 51°11.015 2°42.541 271.9 7.4 272 13.2
2011-10-10 07:42:54 51°11.015 2°42.528 272 7.5 271 13.1
2011-10-10 07:42:59 51°11.016 2°42.511 271.9 7.4 273 12.5
2011-10-10 07:43:04 51°11.016 2°42.496 272 6.8 272 13.1
2011-10-10 07:43:09 51°11.017 2°42.481 272.4 6.9 273 13.4
2011-10-10 07:43:14 51°11.017 2°42.465 272.5 7 273 12.8
2011-10-10 07:43:19 51°11.018 2°42.45 272.9 6.9 273 13.2
2011-10-10 07:43:24 51°11.018 2°42.435 272.9 6.9 271 13
2011-10-10 07:43:29 51°11.018 2°42.42 273 6.9 274 13.2
2011-10-10 07:43:34 51°11.019 2°42.405 273 6.8 272 13.6
2011-10-10 07:43:39 51°11.019 2°42.389 273 7.1 274 13.3
2011-10-10 07:43:44 51°11.02 2°42.373 272.8 7.1 274 13.3
2011-10-10 07:43:49 51°11.021 2°42.357 273 7.1 274 13.1
2011-10-10 07:43:54 51°11.021 2°42.342 273.8 7.1 273 13.2
2011-10-10 07:43:59 51°11.022 2°42.326 274.1 7 274 13.1
2011-10-10 07:44:04 51°11.022 2°42.312 274.2 6.6 273 13
2011-10-10 07:44:09 51°11.023 2°42.299 274 6 273 13.1
2011-10-10 07:44:14 51°11.023 2°42.286 273.5 5.6 273 12.4
2011-10-10 07:44:19 51°11.024 2°42.276 273.1 4.6 274 13
2011-10-10 07:44:25 51°11.024 2°42.266 273.3 4.2 273 13.3
2011-10-10 07:44:30 51°11.024 2°42.257 273.1 3.9 273 13.3
2011-10-10 07:44:34 51°11.025 2°42.251 272.2 3.6 273 13.4
2011-10-10 07:44:39 51°11.025 2°42.243 272.3 3.4 273 13.4
2011-10-10 07:44:44 51°11.025 2°42.236 272.3 3.3 276 13.2
2011-10-10 07:44:50 51°11.026 2°42.228 272.3 3.2 276 13.2
2011-10-10 07:44:54 51°11.026 2°42.223 272.4 2.9 273 13
2011-10-10 07:44:59 51°11.027 2°42.217 272.9 2.7 280 13.4
2011-10-10 07:45:04 51°11.027 2°42.212 273.6 2.4 280 12.8
2011-10-10 07:45:10 51°11.028 2°42.206 273.9 2.1 284 12.6
2011-10-10 07:45:14 51°11.029 2°42.203 274.6 2.2 283 12.6
2011-10-10 07:45:19 51°11.029 2°42.199 275 2 280 12.9
2011-10-10 07:45:24 51°11.029 2°42.195 274.7 1.9 281 13.3
2011-10-10 07:45:29 51°11.03 2°42.191 274.6 1.9 288 12.8
2011-10-10 07:45:34 51°11.031 2°42.186 275.1 1.9 281 -999
2011-10-10 07:45:39 51°11.032 2°42.183 275.7 1.9 292 13.4
2011-10-10 07:45:44 51°11.033 2°42.179 276.6 1.7 290 12.8
2011-10-10 07:45:49 51°11.033 2°42.176 276.6 1.6 293 12.8
2011-10-10 07:45:54 51°11.034 2°42.173 276.7 1.6 288 13.2
2011-10-10 07:45:59 51°11.035 2°42.17 277.4 1.5 293 13.2
2011-10-10 07:46:04 51°11.036 2°42.166 277.7 1.5 291 12.9
2011-10-10 07:46:10 51°11.037 2°42.163 278.2 1.4 303 13
2011-10-10 07:46:14 51°11.037 2°42.161 278.8 1.3 303 13.3
2011-10-10 07:46:19 51°11.039 2°42.159 279.7 1.4 320 13.6
2011-10-10 07:46:25 51°11.04 2°42.156 281.5 1.1 312 -999
2011-10-10 07:46:30 51°11.042 2°42.155 283.9 1.4 321 13
2011-10-10 07:46:34 51°11.043 2°42.153 286.2 1.5 313 13.6
2011-10-10 07:46:39 51°11.045 2°42.15 287.5 1.6 316 13.2
2011-10-10 07:46:45 51°11.046 2°42.147 289.2 1.7 313 -999
2011-10-10 07:46:50 51°11.048 2°42.145 289.6 1.6 321 13
2011-10-10 07:46:55 51°11.049 2°42.144 289.7 1.3 329 12.6
2011-10-10 07:47:01 51°11.051 2°42.143 291 1.2 340 -999
2011-10-10 07:47:06 51°11.052 2°42.143 292.2 1.1 352 -999
2011-10-10 07:47:11 51°11.053 2°42.142 293.9 0.8 357 12.5
2011-10-10 07:47:17 51°11.055 2°42.143 296.9 0.8 15 -999
2011-10-10 07:47:22 51°11.056 2°42.143 299.9 0.9 16 12.6
2011-10-10 07:47:27 51°11.057 2°42.144 302.3 1 22 -999
2011-10-10 07:47:32 51°11.058 2°42.145 304.2 0.9 29 13
2011-10-10 07:47:37 51°11.06 2°42.146 307 0.9 37 13.3
2011-10-10 07:47:42 51°11.061 2°42.147 309.2 1 42 13.6
2011-10-10 07:47:46 51°11.062 2°42.149 311.5 1.1 44 13.7
2011-10-10 07:47:51 51°11.063 2°42.15 313.5 0.9 54 13.4
2011-10-10 07:47:56 51°11.064 2°42.153 316.6 1.1 52 13.7
2011-10-10 07:48:02 51°11.064 2°42.155 320.1 0.9 56 13.3
2011-10-10 07:48:06 51°11.065 2°42.157 324.2 1.1 59 13.1
2011-10-10 07:48:11 51°11.065 2°42.158 328.1 0.8 61 13.2
2011-10-10 07:48:16 51°11.066 2°42.16 330.8 0.8 68 12.8
2011-10-10 07:48:21 51°11.066 2°42.162 334 0.7 77 12.7
2011-10-10 07:48:26 51°11.067 2°42.164 336.1 1 70 12.9
2011-10-10 07:48:30 51°11.067 2°42.165 338.1 1 74 13.2
2011-10-10 07:48:35 51°11.067 2°42.167 340.7 0.9 84 13.2
2011-10-10 07:48:40 51°11.067 2°42.169 344.1 0.7 70 12.9
2011-10-10 07:48:45 51°11.068 2°42.171 345.6 0.9 73 13.5
2011-10-10 07:48:50 51°11.068 2°42.173 346.1 0.9 78 13.2
2011-10-10 07:48:54 51°11.068 2°42.174 347.9 0.8 81 13
2011-10-10 07:48:59 51°11.068 2°42.176 350.4 0.9 83 13.2
2011-10-10 07:49:04 51°11.069 2°42.178 351.4 0.6 91 12.8
2011-10-10 07:49:09 51°11.069 2°42.181 353 0.8 81 13.1
2011-10-10 07:49:14 51°11.069 2°42.183 353.4 1 85 13.5
2011-10-10 07:49:19 51°11.069 2°42.184 354.4 0.8 86 13.8
2011-10-10 07:49:24 51°11.069 2°42.186 355.7 1.1 85 13.6
2011-10-10 07:49:30 51°11.069 2°42.189 356.9 0.7 88 13.4
2011-10-10 07:49:34 51°11.069 2°42.191 357.6 1 91 13.3
2011-10-10 07:49:38 51°11.069 2°42.192 358.6 1.2 91 13
2011-10-10 07:49:44 51°11.069 2°42.195 358.9 1.1 94 13.6
2011-10-10 07:49:49 51°11.069 2°42.197 359.3 1.2 93 14
2011-10-10 07:49:54 51°11.069 2°42.199 359.6 0.9 92 13.2
2011-10-10 07:49:59 51°11.069 2°42.201 0.4 1.1 94 12.7
2011-10-10 07:50:04 51°11.069 2°42.204 0.9 1.3 93 13.4
2011-10-10 07:50:10 51°11.069 2°42.206 0.6 1.2 90 13.7
2011-10-10 07:50:14 51°11.069 2°42.207 1.5 1 85 13.3
2011-10-10 07:50:19 51°11.069 2°42.21 0.8 0.9 86 13.4
2011-10-10 07:50:24 51°11.069 2°42.212 0.1 1.2 88 13.7
2011-10-10 07:50:30 51°11.069 2°42.214 359 1.2 96 13.5
2011-10-10 07:50:34 51°11.069 2°42.216 359.4 1 92 13.2
2011-10-10 07:50:39 51°11.069 2°42.218 0.8 0.7 90 13
2011-10-10 07:50:44 51°11.069 2°42.22 1.7 0.7 86 12.4
2011-10-10 07:50:50 51°11.069 2°42.222 1.2 0.7 88 12.5
2011-10-10 07:50:54 51°11.069 2°42.224 2.1 0.8 86 12.7
2011-10-10 07:50:59 51°11.069 2°42.226 1.6 1 86 13.2
2011-10-10 07:51:04 51°11.069 2°42.228 1.5 1.1 91 13.4
2011-10-10 07:51:10 51°11.069 2°42.231 0.8 0.9 92 13.1
2011-10-10 07:51:14 51°11.069 2°42.231 0.4 0.6 86 12.9
2011-10-10 07:51:19 51°11.069 2°42.234 -999 0.9 85 12.4
2011-10-10 07:51:24 51°11.069 2°42.236 0.3 1.1 89 13.3
2011-10-10 07:51:30 51°11.069 2°42.238 359.7 1 92 13.6
2011-10-10 07:51:34 51°11.069 2°42.24 359.3 0.8 88 13.2
2011-10-10 07:51:39 51°11.069 2°42.242 359.3 0.8 90 13.1
2011-10-10 07:51:44 51°11.069 2°42.244 359.4 1 95 13.5
2011-10-10 07:51:49 51°11.069 2°42.246 358.4 0.8 98 13.2
2011-10-10 07:51:54 51°11.068 2°42.248 358.6 1 97 13.2
2011-10-10 07:51:59 51°11.068 2°42.251 357.7 0.6 93 12.7
2011-10-10 07:52:04 51°11.068 2°42.253 358.2 1.8 94 13.7
2011-10-10 07:52:10 51°11.068 2°42.255 357.9 0.7 106 12.8
2011-10-10 07:52:14 51°11.068 2°42.258 358.4 1.5 91 13.1
2011-10-10 07:52:18 51°11.068 2°42.258 358.1 1.4 85 13.5
2011-10-10 07:52:24 51°11.068 2°42.263 356.2 1.3 91 13.3
2011-10-10 07:52:29 51°11.068 2°42.265 356.9 1.5 94 13.8
2011-10-10 07:52:34 51°11.068 2°42.267 356.6 1.1 94 13.2
2011-10-10 07:52:39 51°11.068 2°42.27 357.4 1 89 12.6
2011-10-10 07:52:44 51°11.068 2°42.273 358.7 1.2 88 12.6
2011-10-10 07:52:50 51°11.068 2°42.276 357.8 1.4 86 13.7
2011-10-10 07:52:54 51°11.068 2°42.276 356.5 0.5 91 13.5
2011-10-10 07:52:59 51°11.069 2°42.279 355.8 0.9 88 13.3
2011-10-10 07:53:05 51°11.069 2°42.281 356.4 1 88 13.6
2011-10-10 07:53:10 51°11.069 2°42.283 356.1 0.8 87 13.5
2011-10-10 07:53:14 51°11.069 2°42.284 355.5 1 86 13.8
2011-10-10 07:53:19 51°11.069 2°42.286 354.9 0.7 84 13.5
2011-10-10 07:53:24 51°11.069 2°42.288 354.7 1.1 82 13.7
2011-10-10 07:53:29 51°11.069 2°42.289 354.4 0.6 83 13.3
2011-10-10 07:53:34 51°11.07 2°42.291 354.6 0.8 73 12.9
2011-10-10 07:53:39 51°11.07 2°42.293 355.2 0.6 76 12.5
2011-10-10 07:53:44 51°11.07 2°42.296 355.5 0.9 86 13.1
2011-10-10 07:53:50 51°11.07 2°42.298 356.4 0.8 84 13.2
2011-10-10 07:53:54 51°11.07 2°42.301 355.7 1.3 88 13.6
2011-10-10 07:53:59 51°11.07 2°42.302 355.2 1 88 13.8
2011-10-10 07:54:04 51°11.07 2°42.304 355.4 0.8 89 13.6
2011-10-10 07:54:10 51°11.07 2°42.307 354.9 1.1 89 13.4
2011-10-10 07:54:14 51°11.07 2°42.308 354.3 0.7 94 13.4
2011-10-10 07:54:19 51°11.07 2°42.31 354.1 0.3 92 12.5
2011-10-10 07:54:24 51°11.07 2°42.314 354.3 1.4 90 13.2
2011-10-10 07:54:30 51°11.07 2°42.315 353.8 0.6 92 12.9
2011-10-10 07:54:34 51°11.07 2°42.318 353.6 1.5 87 13.1
2011-10-10 07:54:39 51°11.07 2°42.319 354.3 1 91 13.7
2011-10-10 07:54:44 51°11.07 2°42.322 353.4 1.1 88 13.5
2011-10-10 07:54:50 51°11.07 2°42.325 354.4 1.7 91 13.6
2011-10-10 07:54:54 51°11.07 2°42.326 355 0.7 93 12.7
2011-10-10 07:54:59 51°11.07 2°42.329 356.1 1.1 90 12.9
2011-10-10 07:55:04 51°11.07 2°42.33 355.9 0.5 97 12.6
2011-10-10 07:55:10 51°11.07 2°42.334 355.4 1 91 12.6
2011-10-10 07:55:14 51°11.07 2°42.336 356.4 1.2 92 13.5
2011-10-10 07:55:19 51°11.07 2°42.337 354.7 0.8 97 13.2
2011-10-10 07:55:25 51°11.07 2°42.341 355.4 1.4 93 13.7
2011-10-10 07:55:30 51°11.069 2°42.341 355.4 0.7 100 13.6
2011-10-10 07:55:34 51°11.069 2°42.345 356.5 1.4 93 13.2
2011-10-10 07:55:39 51°11.069 2°42.346 356.4 0.8 93 13.2
2011-10-10 07:55:44 51°11.069 2°42.348 356.6 1 95 13.2
2011-10-10 07:55:49 51°11.069 2°42.35 357 0.9 100 13.3
2011-10-10 07:55:54 51°11.069 2°42.352 357.4 0.9 96 13.2
2011-10-10 07:55:59 51°11.068 2°42.353 358.1 0.8 93 13.4
2011-10-10 07:56:04 51°11.068 2°42.355 357.9 0.6 98 12.9
2011-10-10 07:56:10 51°11.068 2°42.358 357.2 0.9 94 12.8
2011-10-10 07:56:14 51°11.068 2°42.359 358.1 0.7 87 12.8
2011-10-10 07:56:18 51°11.068 2°42.361 358.1 1 92 12.8
2011-10-10 07:56:24 51°11.068 2°42.363 358.1 0.7 92 13
2011-10-10 07:56:30 51°11.068 2°42.365 358.4 0.7 89 12.7
2011-10-10 07:56:34 51°11.068 2°42.368 358.6 1 91 12.9
2011-10-10 07:56:39 51°11.068 2°42.37 357.9 1.1 90 13
2011-10-10 07:56:44 51°11.068 2°42.372 358.2 1.1 86 13.4
2011-10-10 07:56:50 51°11.068 2°42.373 357.8 0.7 88 13.3
2011-10-10 07:56:54 51°11.068 2°42.376 357.5 1.4 86 13.7
2011-10-10 07:56:59 51°11.068 2°42.377 356.7 1.1 88 14
2011-10-10 07:57:04 51°11.068 2°42.379 356.2 0.7 92 13.4
2011-10-10 07:57:10 51°11.068 2°42.382 356.7 0.8 91 12.4
2011-10-10 07:57:14 51°11.068 2°42.385 356.2 1.1 86 12.3
2011-10-10 07:57:19 51°11.068 2°42.387 357.6 1.2 90 13.2
2011-10-10 07:57:24 51°11.068 2°42.389 356.1 0.8 96 13.3
2011-10-10 07:57:30 51°11.068 2°42.393 355.6 1.5 85 13.9
2011-10-10 07:57:34 51°11.068 2°42.393 355.8 0.9 87 13.7
2011-10-10 07:57:39 51°11.068 2°42.395 355.7 0.8 90 13.3
2011-10-10 07:57:44 51°11.068 2°42.398 355.2 0.9 93 13.2
2011-10-10 07:57:50 51°11.068 2°42.401 355 0.9 88 13.2
2011-10-10 07:57:54 51°11.068 2°42.402 354.8 1 87 13.3
2011-10-10 07:57:59 51°11.068 2°42.405 354 0.9 84 12.9
2011-10-10 07:58:05 51°11.068 2°42.408 353.5 1.1 83 13
2011-10-10 07:58:10 51°11.068 2°42.41 352.9 1.3 86 13.5
2011-10-10 07:58:14 51°11.068 2°42.411 352.7 0.9 86 13
2011-10-10 07:58:19 51°11.068 2°42.414 352.4 1.2 83 13
2011-10-10 07:58:24 51°11.068 2°42.416 352.3 1 80 13
2011-10-10 07:58:30 51°11.068 2°42.42 352.7 1.6 88 13.9
2011-10-10 07:58:34 51°11.068 2°42.419 352.2 0.4 100 13.6
2011-10-10 07:58:39 51°11.068 2°42.423 352.6 1.2 87 13.4
2011-10-10 07:58:44 51°11.068 2°42.424 353.3 1.4 85 13.8
2011-10-10 07:58:50 51°11.068 2°42.427 352.2 0.7 97 13.1
2011-10-10 07:58:54 51°11.068 2°42.429 351.8 1 92 13
2011-10-10 07:58:59 51°11.068 2°42.432 351.8 1.2 92 13.8
2011-10-10 07:59:04 51°11.068 2°42.434 351.1 1.4 93 14.2
2011-10-10 07:59:09 51°11.068 2°42.435 350.7 0.9 96 13.4
2011-10-10 07:59:14 51°11.068 2°42.439 351.2 1.1 84 12.8
2011-10-10 07:59:19 51°11.068 2°42.44 351.4 1.4 84 13.8
2011-10-10 07:59:24 51°11.068 2°42.441 350 0.8 94 13.7
2011-10-10 07:59:30 51°11.068 2°42.444 349.9 0.5 100 12.7
2011-10-10 07:59:34 51°11.068 2°42.447 350.7 1.5 84 13.6
2011-10-10 07:59:38 51°11.068 2°42.447 350.1 1.3 89 13.8
2011-10-10 07:59:44 51°11.068 2°42.45 349.2 0.6 97 13.6
2011-10-10 07:59:50 51°11.068 2°42.452 350.2 0.7 90 13.1
2011-10-10 07:59:54 51°11.068 2°42.455 350.6 1.2 91 13.7
2011-10-10 07:59:59 51°11.068 2°42.456 349.9 1 95 14.1
2011-10-10 08:00:04 51°11.067 2°42.458 349.6 0.9 95 13.9
2011-10-10 08:00:10 51°11.068 2°42.46 349.9 0.8 87 13.7
2011-10-10 08:00:14 51°11.068 2°42.462 350 1 84 13.2
2011-10-10 08:00:19 51°11.068 2°42.464 349.5 1 81 13.2
2011-10-10 08:00:24 51°11.068 2°42.466 349.2 1.1 87 13.5
2011-10-10 08:00:30 51°11.068 2°42.469 349.9 1.1 92 13.4
2011-10-10 08:00:34 51°11.068 2°42.471 350.7 1 92 13.4
2011-10-10 08:00:39 51°11.068 2°42.472 351.8 1 88 13.5
2011-10-10 08:00:44 51°11.068 2°42.475 351.7 0.9 89 13.3
2011-10-10 08:00:49 51°11.068 2°42.477 351.7 1.4 85 13.7
2011-10-10 08:00:54 51°11.068 2°42.478 351.4 0.7 86 13.9
2011-10-10 08:00:59 51°11.068 2°42.481 351.2 1 85 13.8
2011-10-10 08:01:04 51°11.068 2°42.483 351.7 0.8 86 13.2
2011-10-10 08:01:10 51°11.068 2°42.486 351.9 1.2 87 13.6
2011-10-10 08:01:14 51°11.068 2°42.486 351.5 0.5 104 13.4
2011-10-10 08:01:18 51°11.068 2°42.489 352.3 0.8 92 12.7
2011-10-10 08:01:24 51°11.068 2°42.491 352.5 1 83 12.4
2011-10-10 08:01:29 51°11.068 2°42.494 353.3 1 87 13.1
2011-10-10 08:01:34 51°11.068 2°42.495 354.3 0.8 84 13.5
2011-10-10 08:01:39 51°11.068 2°42.496 354.6 0.5 90 13.1
2011-10-10 08:01:44 51°11.068 2°42.499 354.3 1.3 84 13.3
2011-10-10 08:01:50 51°11.068 2°42.502 353.6 1.2 84 13.6
2011-10-10 08:01:54 51°11.068 2°42.502 354 0.4 82 13.4
2011-10-10 08:01:59 51°11.068 2°42.504 354.8 0.9 92 13.3
2011-10-10 08:02:04 51°11.069 2°42.506 354.9 0.7 81 13
2011-10-10 08:02:10 51°11.069 2°42.51 354.3 1.1 83 13.1
2011-10-10 08:02:14 51°11.069 2°42.511 352.5 1.1 86 13.6
2011-10-10 08:02:19 51°11.069 2°42.513 351.6 1 88 13.8
2011-10-10 08:02:24 51°11.069 2°42.515 351.4 0.9 90 13.8
2011-10-10 08:02:30 51°11.069 2°42.517 351.9 0.8 88 13.3
2011-10-10 08:02:34 51°11.069 2°42.519 351.7 0.9 85 13.3
2011-10-10 08:02:39 51°11.07 2°42.521 351.4 0.9 78 13.6
2011-10-10 08:02:44 51°11.07 2°42.522 351.4 0.7 56 12.9
2011-10-10 08:02:50 51°11.072 2°42.525 353.1 1.3 30 13
2011-10-10 08:02:54 51°11.074 2°42.526 355.7 1.7 24 13.5
2011-10-10 08:02:59 51°11.077 2°42.528 358.7 2.4 17 13.2
2011-10-10 08:03:04 51°11.081 2°42.531 3.4 3.2 24 13.6
2011-10-10 08:03:09 51°11.086 2°42.534 8.4 3.8 22 13.5
2011-10-10 08:03:14 51°11.091 2°42.537 13.3 4 24 13.4
2011-10-10 08:03:19 51°11.097 2°42.541 19 4.4 28 13.4
2011-10-10 08:03:24 51°11.102 2°42.547 24.9 4.7 34 13.2
2011-10-10 08:03:29 51°11.108 2°42.554 32 5.1 49 13.2
2011-10-10 08:03:34 51°11.112 2°42.563 41.5 5.2 43 -999
2011-10-10 08:03:40 51°11.117 2°42.576 52.2 5.4 65 13.4
2011-10-10 08:03:46 51°11.121 2°42.589 61.7 5.6 67 -999
2011-10-10 08:03:50 51°11.121 2°42.599 70.9 5.6 82 13.8
2011-10-10 08:03:55 51°11.123 2°42.611 76.1 5.7 84 13.1
2011-10-10 08:04:01 51°11.121 2°42.627 87.9 6.1 95 13.7
2011-10-10 08:04:06 51°11.119 2°42.641 97.2 6.4 101 13.3
2011-10-10 08:04:10 51°11.116 2°42.651 104.8 6.4 110 13.3
2011-10-10 08:04:15 51°11.115 2°42.667 108.4 7.3 100 13.5
2011-10-10 08:04:20 51°11.111 2°42.682 106.6 7.4 110 13.2
2011-10-10 08:04:25 51°11.11 2°42.701 103.2 8.3 99 -999
2011-10-10 08:04:30 51°11.105 2°42.718 104.5 8.4 108 13.6
2011-10-10 08:04:35 51°11.104 2°42.738 102.3 9 97 13.6
2011-10-10 08:04:40 51°11.1 2°42.758 102.7 9.4 107 13.4
2011-10-10 08:04:45 51°11.1 2°42.78 100.8 10.1 93 13.6
2011-10-10 08:04:50 51°11.097 2°42.801 97.1 10.1 102 13.6
2011-10-10 08:04:54 51°11.096 2°42.819 98.4 10.4 94 13.2
2011-10-10 08:04:59 51°11.095 2°42.844 95.7 11.2 93 13.6
2011-10-10 08:05:04 51°11.095 2°42.869 92.5 11.2 89 13.4
2011-10-10 08:05:10 51°11.095 2°42.898 89.4 11.2 89 13.3
2011-10-10 08:05:14 51°11.096 2°42.919 88 11.7 86 13.4
2011-10-10 08:05:19 51°11.098 2°42.945 85.7 11.8 84 13.4
2011-10-10 08:05:24 51°11.099 2°42.971 84.3 11.6 85 13.2
2011-10-10 08:05:30 51°11.102 2°43.003 84.7 12.3 84 13.4
2011-10-10 08:05:34 51°11.105 2°43.023 80.8 12.2 77 13.4
2011-10-10 08:05:39 51°11.107 2°43.049 80.6 11.7 84 13.4
2011-10-10 08:05:44 51°11.111 2°43.075 81 11.8 77 13.3
2011-10-10 08:05:49 51°11.114 2°43.1 77.9 11.9 80 13.2
2011-10-10 08:05:54 51°11.118 2°43.126 78.2 12.1 78 13.2
2011-10-10 08:05:59 51°11.121 2°43.152 78.1 12 77 13.5
2011-10-10 08:06:04 51°11.124 2°43.177 78.2 11.6 78 13.2
2011-10-10 08:06:10 51°11.128 2°43.208 77.9 12 79 13.2